Terminal Aerodrome Forecast
Issued by NWS

Current Version | Previous Version | Text Only | Print | Product List | Glossary On
Versions: 1 2 3 4 5 6 7 8 9 10 11 12 13 14 15 16 17 18 19 20 21 22 23
000
FTUS46 KSEW 230500
TAFBFI
TAF
KBFI 230534Z 2306/2406 15005KT P6SM SCT025 BKN090
     FM231000 16011KT P6SM -RA SCT015 OVC025
     FM231300 17012KT 5SM -RA BR SCT014 OVC020
     FM231700 18014G22KT P6SM VCSH SCT018 BKN025
     FM232100 19010G18KT P6SM VCSH SCT025 BKN040
     FM240300 17005KT P6SM SCT030 BKN045=

USA.gov is the U.S. government's official web portal to all federal, state and local government web resources and services.